FALW

Langebaanweg Airport

Langebaanweg, South Africa
METAR FALW 170400Z AUTO 22004KT //// // ////// 12/11 Q1020
Observed Flight Rules
Oct-17 @ 04:00 UTC (an hour ago)
Wind
220° at 4 knots
Temperatures Readings
Current 12°C / 54°F
Dewpoint 11°C / 52°F
Humidity 94%
Altimeter 30.12" Hg
Pressure 1020 hPa
Elevation 0
METAR FALW 170400Z AUTO 22004KT //// // ////// 12/11 Q1020
Observed Flight Rules
Oct-17 @ 04:00 UTC
(an hour ago)
Wind
220° at 4 knots
Temperature Dewpoint
12°C / 54°F 11°C / 52°F
Humidity Altimeter Pressure
94% 30.12" Hg 1020 hPa